sensor_id;sensor_type;location;lat;lon;timestamp;P1;durP1;ratioP1;P2;durP2;ratioP2
75939;SDS011;75809;44.872;20.642;2024-03-23T00:55:27;69.80;;;35.10;;
75939;SDS011;75809;44.872;20.642;2024-03-23T00:57:53;67.95;;;37.42;;
75939;SDS011;75809;44.872;20.642;2024-03-23T01:00:18;71.15;;;35.35;;
75939;SDS011;75809;44.872;20.642;2024-03-23T01:02:44;72.47;;;35.78;;
75939;SDS011;75809;44.872;20.642;2024-03-23T01:05:09;75.70;;;39.13;;
75939;SDS011;75809;44.872;20.642;2024-03-23T01:07:35;70.70;;;36.47;;
75939;SDS011;75809;44.872;20.642;2024-03-23T01:10:00;68.07;;;34.67;;
75939;SDS011;75809;44.872;20.642;2024-03-23T01:12:25;65.57;;;33.85;;
75939;SDS011;75809;44.872;20.642;2024-03-23T01:14:51;61.90;;;33.00;;
75939;SDS011;75809;44.872;20.642;2024-03-23T01:17:16;64.68;;;32.85;;
75939;SDS011;75809;44.872;20.642;2024-03-23T01:19:42;69.22;;;34.03;;
75939;SDS011;75809;44.872;20.642;2024-03-23T01:22:07;65.15;;;33.53;;
75939;SDS011;75809;44.872;20.642;2024-03-23T01:24:35;56.50;;;30.10;;
75939;SDS011;75809;44.872;20.642;2024-03-23T01:27:00;56.55;;;27.17;;
75939;SDS011;75809;44.872;20.642;2024-03-23T01:29:26;50.47;;;27.27;;
75939;SDS011;75809;44.872;20.642;2024-03-23T01:31:51;56.83;;;28.85;;
75939;SDS011;75809;44.872;20.642;2024-03-23T01:34:17;66.03;;;30.30;;
75939;SDS011;75809;44.872;20.642;2024-03-23T01:36:42;60.40;;;29.60;;
75939;SDS011;75809;44.872;20.642;2024-03-23T01:39:08;57.92;;;31.40;;
75939;SDS011;75809;44.872;20.642;2024-03-23T01:41:36;68.18;;;33.88;;
75939;SDS011;75809;44.872;20.642;2024-03-23T01:44:04;72.60;;;36.67;;
75939;SDS011;75809;44.872;20.642;2024-03-23T01:46:33;69.60;;;35.35;;
75939;SDS011;75809;44.872;20.642;2024-03-23T01:48:58;71.03;;;35.55;;
75939;SDS011;75809;44.872;20.642;2024-03-23T01:51:24;81.57;;;36.60;;
75939;SDS011;75809;44.872;20.642;2024-03-23T01:53:51;68.30;;;36.35;;
75939;SDS011;75809;44.872;20.642;2024-03-23T01:56:19;69.13;;;33.90;;
75939;SDS011;75809;44.872;20.642;2024-03-23T01:58:45;67.55;;;33.85;;
75939;SDS011;75809;44.872;20.642;2024-03-23T02:01:11;64.40;;;33.08;;
75939;SDS011;75809;44.872;20.642;2024-03-23T02:03:37;60.30;;;32.05;;
75939;SDS011;75809;44.872;20.642;2024-03-23T02:06:02;63.58;;;33.17;;
75939;SDS011;75809;44.872;20.642;2024-03-23T02:08:28;70.93;;;32.88;;
75939;SDS011;75809;44.872;20.642;2024-03-23T02:10:55;64.85;;;31.77;;
75939;SDS011;75809;44.872;20.642;2024-03-23T02:13:21;62.58;;;31.48;;
75939;SDS011;75809;44.872;20.642;2024-03-23T02:15:46;73.53;;;33.38;;
75939;SDS011;75809;44.872;20.642;2024-03-23T02:18:12;66.43;;;32.55;;
75939;SDS011;75809;44.872;20.642;2024-03-23T02:20:38;62.60;;;30.10;;
75939;SDS011;75809;44.872;20.642;2024-03-23T02:23:04;69.85;;;30.60;;
75939;SDS011;75809;44.872;20.642;2024-03-23T02:25:31;65.25;;;30.05;;
75939;SDS011;75809;44.872;20.642;2024-03-23T02:27:58;60.88;;;29.33;;
75939;SDS011;75809;44.872;20.642;2024-03-23T02:30:24;63.75;;;30.77;;
75939;SDS011;75809;44.872;20.642;2024-03-23T02:32:50;57.55;;;27.30;;
75939;SDS011;75809;44.872;20.642;2024-03-23T02:35:16;63.63;;;30.33;;
75939;SDS011;75809;44.872;20.642;2024-03-23T02:37:41;65.15;;;29.90;;
75939;SDS011;75809;44.872;20.642;2024-03-23T02:40:07;64.13;;;29.10;;
75939;SDS011;75809;44.872;20.642;2024-03-23T02:42:32;58.90;;;28.75;;
75939;SDS011;75809;44.872;20.642;2024-03-23T02:44:58;61.75;;;31.42;;
75939;SDS011;75809;44.872;20.642;2024-03-23T02:47:24;58.40;;;29.13;;
75939;SDS011;75809;44.872;20.642;2024-03-23T02:49:49;61.80;;;28.48;;
75939;SDS011;75809;44.872;20.642;2024-03-23T02:52:14;55.78;;;28.40;;
75939;SDS011;75809;44.872;20.642;2024-03-23T02:54:40;58.03;;;29.27;;
75939;SDS011;75809;44.872;20.642;2024-03-23T02:57:09;59.83;;;29.63;;
75939;SDS011;75809;44.872;20.642;2024-03-23T02:59:35;61.67;;;29.05;;
75939;SDS011;75809;44.872;20.642;2024-03-23T03:02:01;59.70;;;29.67;;
75939;SDS011;75809;44.872;20.642;2024-03-23T03:04:26;61.15;;;29.42;;
75939;SDS011;75809;44.872;20.642;2024-03-23T03:06:52;59.05;;;29.40;;
75939;SDS011;75809;44.872;20.642;2024-03-23T03:09:17;56.50;;;28.50;;
75939;SDS011;75809;44.872;20.642;2024-03-23T03:11:43;57.42;;;29.25;;
75939;SDS011;75809;44.872;20.642;2024-03-23T03:14:08;60.90;;;30.70;;
75939;SDS011;75809;44.872;20.642;2024-03-23T03:16:34;54.33;;;27.88;;
75939;SDS011;75809;44.872;20.642;2024-03-23T03:18:59;63.22;;;29.27;;
75939;SDS011;75809;44.872;20.642;2024-03-23T03:21:25;55.55;;;26.88;;
75939;SDS011;75809;44.872;20.642;2024-03-23T03:23:50;58.63;;;28.88;;
75939;SDS011;75809;44.872;20.642;2024-03-23T03:26:16;53.03;;;28.20;;
75939;SDS011;75809;44.872;20.642;2024-03-23T03:28:42;55.35;;;26.77;;
75939;SDS011;75809;44.872;20.642;2024-03-23T03:31:10;58.67;;;27.48;;
75939;SDS011;75809;44.872;20.642;2024-03-23T03:33:35;57.90;;;27.00;;
75939;SDS011;75809;44.872;20.642;2024-03-23T03:36:01;63.33;;;27.08;;
75939;SDS011;75809;44.872;20.642;2024-03-23T03:38:26;52.85;;;27.55;;
75939;SDS011;75809;44.872;20.642;2024-03-23T03:40:53;60.22;;;28.75;;
75939;SDS011;75809;44.872;20.642;2024-03-23T03:43:18;58.97;;;27.08;;
75939;SDS011;75809;44.872;20.642;2024-03-23T03:45:51;55.90;;;28.20;;
75939;SDS011;75809;44.872;20.642;2024-03-23T03:48:18;54.10;;;25.65;;
75939;SDS011;75809;44.872;20.642;2024-03-23T03:50:44;53.20;;;26.17;;
75939;SDS011;75809;44.872;20.642;2024-03-23T03:53:09;56.28;;;27.00;;
75939;SDS011;75809;44.872;20.642;2024-03-23T03:55:35;56.28;;;25.10;;
75939;SDS011;75809;44.872;20.642;2024-03-23T03:58:00;59.03;;;27.17;;
75939;SDS011;75809;44.872;20.642;2024-03-23T04:00:26;60.40;;;25.05;;
75939;SDS011;75809;44.872;20.642;2024-03-23T04:02:51;49.78;;;25.08;;
75939;SDS011;75809;44.872;20.642;2024-03-23T04:05:17;51.47;;;24.95;;
75939;SDS011;75809;44.872;20.642;2024-03-23T04:07:42;52.10;;;25.85;;
75939;SDS011;75809;44.872;20.642;2024-03-23T04:10:08;51.78;;;25.90;;
75939;SDS011;75809;44.872;20.642;2024-03-23T04:12:34;50.60;;;25.33;;
75939;SDS011;75809;44.872;20.642;2024-03-23T04:14:59;55.45;;;26.98;;
75939;SDS011;75809;44.872;20.642;2024-03-23T04:17:26;53.20;;;26.45;;
75939;SDS011;75809;44.872;20.642;2024-03-23T04:19:56;57.15;;;24.98;;
75939;SDS011;75809;44.872;20.642;2024-03-23T04:22:22;54.95;;;25.88;;
75939;SDS011;75809;44.872;20.642;2024-03-23T04:24:49;50.40;;;23.65;;
75939;SDS011;75809;44.872;20.642;2024-03-23T04:27:15;52.83;;;25.15;;
75939;SDS011;75809;44.872;20.642;2024-03-23T04:29:40;53.80;;;25.58;;
75939;SDS011;75809;44.872;20.642;2024-03-23T04:32:06;52.90;;;24.08;;
75939;SDS011;75809;44.872;20.642;2024-03-23T04:34:31;46.53;;;24.58;;
75939;SDS011;75809;44.872;20.642;2024-03-23T04:36:58;54.80;;;26.88;;
75939;SDS011;75809;44.872;20.642;2024-03-23T04:39:23;61.35;;;28.42;;
75939;SDS011;75809;44.872;20.642;2024-03-23T04:41:49;57.13;;;25.92;;
75939;SDS011;75809;44.872;20.642;2024-03-23T04:44:15;54.95;;;25.85;;
75939;SDS011;75809;44.872;20.642;2024-03-23T04:46:40;54.97;;;25.65;;
75939;SDS011;75809;44.872;20.642;2024-03-23T04:49:06;48.35;;;23.67;;
75939;SDS011;75809;44.872;20.642;2024-03-23T04:51:40;47.42;;;24.52;;
75939;SDS011;75809;44.872;20.642;2024-03-23T04:54:10;49.58;;;24.98;;
75939;SDS011;75809;44.872;20.642;2024-03-23T04:56:36;51.38;;;23.80;;
75939;SDS011;75809;44.872;20.642;2024-03-23T04:59:02;49.63;;;22.17;;
75939;SDS011;75809;44.872;20.642;2024-03-23T05:01:30;49.90;;;25.00;;
75939;SDS011;75809;44.872;20.642;2024-03-23T05:03:58;47.83;;;24.17;;
75939;SDS011;75809;44.872;20.642;2024-03-23T05:06:24;48.80;;;23.98;;
75939;SDS011;75809;44.872;20.642;2024-03-23T05:08:50;47.35;;;23.38;;
75939;SDS011;75809;44.872;20.642;2024-03-23T05:11:19;49.30;;;24.63;;
75939;SDS011;75809;44.872;20.642;2024-03-23T05:13:45;47.97;;;24.10;;
75939;SDS011;75809;44.872;20.642;2024-03-23T05:16:11;49.80;;;26.25;;
75939;SDS011;75809;44.872;20.642;2024-03-23T05:18:36;48.78;;;23.73;;
75939;SDS011;75809;44.872;20.642;2024-03-23T05:21:02;51.20;;;24.83;;
75939;SDS011;75809;44.872;20.642;2024-03-23T05:23:28;50.72;;;25.92;;
75939;SDS011;75809;44.872;20.642;2024-03-23T05:25:54;50.38;;;24.45;;
75939;SDS011;75809;44.872;20.642;2024-03-23T05:28:20;49.53;;;23.98;;
75939;SDS011;75809;44.872;20.642;2024-03-23T05:30:53;49.10;;;23.35;;
75939;SDS011;75809;44.872;20.642;2024-03-23T05:33:19;46.55;;;23.33;;
75939;SDS011;75809;44.872;20.642;2024-03-23T05:35:46;50.05;;;21.85;;
75939;SDS011;75809;44.872;20.642;2024-03-23T05:38:13;53.10;;;23.92;;
75939;SDS011;75809;44.872;20.642;2024-03-23T05:40:38;47.15;;;24.02;;
75939;SDS011;75809;44.872;20.642;2024-03-23T05:43:05;43.30;;;22.23;;
75939;SDS011;75809;44.872;20.642;2024-03-23T05:45:31;47.55;;;22.55;;
75939;SDS011;75809;44.872;20.642;2024-03-23T05:47:57;48.47;;;24.50;;
75939;SDS011;75809;44.872;20.642;2024-03-23T05:50:23;44.33;;;22.08;;
75939;SDS011;75809;44.872;20.642;2024-03-23T05:52:49;44.15;;;22.42;;
75939;SDS011;75809;44.872;20.642;2024-03-23T05:55:15;47.50;;;21.88;;
75939;SDS011;75809;44.872;20.642;2024-03-23T05:57:40;43.33;;;22.23;;
75939;SDS011;75809;44.872;20.642;2024-03-23T06:00:07;41.70;;;20.08;;
75939;SDS011;75809;44.872;20.642;2024-03-23T06:02:43;48.30;;;23.40;;
75939;SDS011;75809;44.872;20.642;2024-03-23T06:05:11;40.20;;;20.00;;
75939;SDS011;75809;44.872;20.642;2024-03-23T06:07:37;51.05;;;23.05;;
75939;SDS011;75809;44.872;20.642;2024-03-23T06:10:03;40.50;;;19.98;;
75939;SDS011;75809;44.872;20.642;2024-03-23T06:12:29;43.47;;;22.42;;
75939;SDS011;75809;44.872;20.642;2024-03-23T06:14:54;44.30;;;23.83;;
75939;SDS011;75809;44.872;20.642;2024-03-23T06:17:20;46.25;;;24.02;;
75939;SDS011;75809;44.872;20.642;2024-03-23T06:19:45;46.17;;;23.73;;
75939;SDS011;75809;44.872;20.642;2024-03-23T06:22:11;44.10;;;21.60;;
75939;SDS011;75809;44.872;20.642;2024-03-23T06:24:36;49.47;;;23.15;;
75939;SDS011;75809;44.872;20.642;2024-03-23T06:27:02;42.42;;;19.85;;
75939;SDS011;75809;44.872;20.642;2024-03-23T06:29:29;39.72;;;20.35;;
75939;SDS011;75809;44.872;20.642;2024-03-23T06:31:55;46.10;;;21.70;;
75939;SDS011;75809;44.872;20.642;2024-03-23T06:34:20;40.75;;;20.38;;
75939;SDS011;75809;44.872;20.642;2024-03-23T06:36:47;39.50;;;20.92;;
75939;SDS011;75809;44.872;20.642;2024-03-23T06:39:14;39.03;;;20.50;;
75939;SDS011;75809;44.872;20.642;2024-03-23T06:41:50;44.10;;;22.40;;
75939;SDS011;75809;44.872;20.642;2024-03-23T06:44:17;40.60;;;20.40;;
75939;SDS011;75809;44.872;20.642;2024-03-23T06:46:43;37.90;;;20.48;;
75939;SDS011;75809;44.872;20.642;2024-03-23T06:49:09;49.88;;;22.52;;
75939;SDS011;75809;44.872;20.642;2024-03-23T06:51:35;42.72;;;22.05;;
75939;SDS011;75809;44.872;20.642;2024-03-23T06:54:01;43.05;;;21.67;;
75939;SDS011;75809;44.872;20.642;2024-03-23T06:56:28;41.75;;;21.55;;
75939;SDS011;75809;44.872;20.642;2024-03-23T06:58:54;43.03;;;20.08;;
75939;SDS011;75809;44.872;20.642;2024-03-23T07:01:19;37.50;;;18.70;;
75939;SDS011;75809;44.872;20.642;2024-03-23T07:03:45;43.22;;;17.40;;
75939;SDS011;75809;44.872;20.642;2024-03-23T07:06:10;36.00;;;18.33;;
75939;SDS011;75809;44.872;20.642;2024-03-23T07:08:36;35.97;;;18.20;;
75939;SDS011;75809;44.872;20.642;2024-03-23T07:11:01;35.15;;;17.10;;
75939;SDS011;75809;44.872;20.642;2024-03-23T07:13:27;34.50;;;18.55;;
75939;SDS011;75809;44.872;20.642;2024-03-23T07:15:53;35.25;;;16.83;;
75939;SDS011;75809;44.872;20.642;2024-03-23T07:18:20;37.75;;;19.35;;
75939;SDS011;75809;44.872;20.642;2024-03-23T07:20:56;33.83;;;18.17;;
75939;SDS011;75809;44.872;20.642;2024-03-23T07:23:22;34.10;;;17.20;;
75939;SDS011;75809;44.872;20.642;2024-03-23T07:28:23;33.90;;;17.00;;
75939;SDS011;75809;44.872;20.642;2024-03-23T07:30:48;39.17;;;18.40;;
75939;SDS011;75809;44.872;20.642;2024-03-23T07:33:36;35.03;;;16.55;;
75939;SDS011;75809;44.872;20.642;2024-03-23T07:36:06;33.20;;;16.60;;
75939;SDS011;75809;44.872;20.642;2024-03-23T07:38:31;34.20;;;17.58;;
75939;SDS011;75809;44.872;20.642;2024-03-23T07:41:06;34.53;;;19.05;;
75939;SDS011;75809;44.872;20.642;2024-03-23T07:43:38;33.70;;;18.38;;
75939;SDS011;75809;44.872;20.642;2024-03-23T07:46:05;34.78;;;18.33;;
75939;SDS011;75809;44.872;20.642;2024-03-23T07:48:31;33.55;;;17.70;;
75939;SDS011;75809;44.872;20.642;2024-03-23T07:50:58;37.35;;;18.65;;
75939;SDS011;75809;44.872;20.642;2024-03-23T07:53:26;29.90;;;16.88;;
75939;SDS011;75809;44.872;20.642;2024-03-23T07:55:56;34.95;;;17.50;;
75939;SDS011;75809;44.872;20.642;2024-03-23T07:58:23;30.27;;;14.93;;
75939;SDS011;75809;44.872;20.642;2024-03-23T08:00:49;32.53;;;16.45;;
75939;SDS011;75809;44.872;20.642;2024-03-23T08:03:15;29.50;;;15.13;;
75939;SDS011;75809;44.872;20.642;2024-03-23T08:05:41;31.98;;;15.73;;
75939;SDS011;75809;44.872;20.642;2024-03-23T08:08:06;33.63;;;16.30;;
75939;SDS011;75809;44.872;20.642;2024-03-23T08:10:32;31.33;;;15.02;;
75939;SDS011;75809;44.872;20.642;2024-03-23T08:12:57;31.33;;;13.43;;
75939;SDS011;75809;44.872;20.642;2024-03-23T08:15:23;32.35;;;15.68;;
75939;SDS011;75809;44.872;20.642;2024-03-23T08:17:49;30.67;;;14.50;;
75939;SDS011;75809;44.872;20.642;2024-03-23T08:20:15;33.00;;;15.00;;
75939;SDS011;75809;44.872;20.642;2024-03-23T08:22:40;32.00;;;14.80;;
75939;SDS011;75809;44.872;20.642;2024-03-23T08:25:06;27.58;;;13.32;;
75939;SDS011;75809;44.872;20.642;2024-03-23T08:27:31;26.63;;;13.55;;
75939;SDS011;75809;44.872;20.642;2024-03-23T08:29:58;28.73;;;12.20;;
75939;SDS011;75809;44.872;20.642;2024-03-23T08:32:23;26.40;;;11.80;;
75939;SDS011;75809;44.872;20.642;2024-03-23T08:34:49;20.08;;;11.45;;
75939;SDS011;75809;44.872;20.642;2024-03-23T08:37:14;27.95;;;11.45;;
75939;SDS011;75809;44.872;20.642;2024-03-23T08:39:40;26.63;;;12.15;;
75939;SDS011;75809;44.872;20.642;2024-03-23T08:42:06;25.73;;;11.95;;
75939;SDS011;75809;44.872;20.642;2024-03-23T08:44:31;22.05;;;11.68;;
75939;SDS011;75809;44.872;20.642;2024-03-23T08:46:57;21.13;;;10.40;;
75939;SDS011;75809;44.872;20.642;2024-03-23T08:49:22;24.13;;;10.70;;
75939;SDS011;75809;44.872;20.642;2024-03-23T08:51:48;21.65;;;9.70;;
75939;SDS011;75809;44.872;20.642;2024-03-23T08:54:13;22.83;;;10.70;;
75939;SDS011;75809;44.872;20.642;2024-03-23T08:56:39;20.73;;;10.95;;
75939;SDS011;75809;44.872;20.642;2024-03-23T08:59:04;19.85;;;10.38;;
75939;SDS011;75809;44.872;20.642;2024-03-23T09:01:30;20.08;;;9.93;;
75939;SDS011;75809;44.872;20.642;2024-03-23T09:03:55;19.70;;;10.38;;
75939;SDS011;75809;44.872;20.642;2024-03-23T09:06:20;22.90;;;9.60;;
75939;SDS011;75809;44.872;20.642;2024-03-23T09:08:46;23.55;;;9.65;;
75939;SDS011;75809;44.872;20.642;2024-03-23T09:11:12;22.08;;;9.38;;
75939;SDS011;75809;44.872;20.642;2024-03-23T09:13:38;23.45;;;9.98;;
75939;SDS011;75809;44.872;20.642;2024-03-23T09:16:05;19.48;;;9.57;;
75939;SDS011;75809;44.872;20.642;2024-03-23T09:18:32;24.65;;;10.48;;
75939;SDS011;75809;44.872;20.642;2024-03-23T09:20:58;18.85;;;8.75;;
75939;SDS011;75809;44.872;20.642;2024-03-23T09:23:23;19.63;;;9.65;;
75939;SDS011;75809;44.872;20.642;2024-03-23T09:25:49;19.35;;;9.68;;
75939;SDS011;75809;44.872;20.642;2024-03-23T09:28:15;19.55;;;9.63;;
75939;SDS011;75809;44.872;20.642;2024-03-23T09:30:40;17.23;;;8.70;;
75939;SDS011;75809;44.872;20.642;2024-03-23T09:33:09;18.42;;;8.88;;
75939;SDS011;75809;44.872;20.642;2024-03-23T09:35:39;18.70;;;9.18;;
75939;SDS011;75809;44.872;20.642;2024-03-23T09:38:05;20.52;;;9.32;;
75939;SDS011;75809;44.872;20.642;2024-03-23T09:40:32;21.52;;;9.25;;
75939;SDS011;75809;44.872;20.642;2024-03-23T09:42:58;20.60;;;10.32;;
75939;SDS011;75809;44.872;20.642;2024-03-23T09:45:27;20.35;;;8.70;;
75939;SDS011;75809;44.872;20.642;2024-03-23T09:47:57;20.08;;;9.30;;
75939;SDS011;75809;44.872;20.642;2024-03-23T09:50:22;16.85;;;8.50;;
75939;SDS011;75809;44.872;20.642;2024-03-23T09:52:48;18.65;;;8.73;;
75939;SDS011;75809;44.872;20.642;2024-03-23T09:55:14;19.70;;;9.80;;
75939;SDS011;75809;44.872;20.642;2024-03-23T09:57:40;18.30;;;8.43;;
75939;SDS011;75809;44.872;20.642;2024-03-23T10:00:06;20.30;;;7.85;;
75939;SDS011;75809;44.872;20.642;2024-03-23T10:02:33;14.48;;;7.13;;
75939;SDS011;75809;44.872;20.642;2024-03-23T10:05:00;15.75;;;7.35;;
75939;SDS011;75809;44.872;20.642;2024-03-23T10:07:25;18.45;;;8.90;;
75939;SDS011;75809;44.872;20.642;2024-03-23T10:09:53;17.67;;;7.95;;
75939;SDS011;75809;44.872;20.642;2024-03-23T10:12:19;14.68;;;7.40;;
75939;SDS011;75809;44.872;20.642;2024-03-23T10:14:45;18.65;;;7.57;;
75939;SDS011;75809;44.872;20.642;2024-03-23T10:19:38;15.07;;;7.93;;
75939;SDS011;75809;44.872;20.642;2024-03-23T10:22:04;15.35;;;7.60;;
75939;SDS011;75809;44.872;20.642;2024-03-23T10:24:29;14.82;;;6.70;;
75939;SDS011;75809;44.872;20.642;2024-03-23T10:26:58;14.60;;;6.22;;
75939;SDS011;75809;44.872;20.642;2024-03-23T10:29:23;14.38;;;7.15;;
75939;SDS011;75809;44.872;20.642;2024-03-23T10:34:24;13.55;;;6.43;;
75939;SDS011;75809;44.872;20.642;2024-03-23T10:36:50;13.32;;;6.50;;
75939;SDS011;75809;44.872;20.642;2024-03-23T10:39:19;15.20;;;6.97;;
75939;SDS011;75809;44.872;20.642;2024-03-23T10:41:47;13.82;;;6.80;;
75939;SDS011;75809;44.872;20.642;2024-03-23T10:44:17;12.50;;;6.03;;
75939;SDS011;75809;44.872;20.642;2024-03-23T10:46:44;16.02;;;6.53;;
75939;SDS011;75809;44.872;20.642;2024-03-23T10:49:10;13.57;;;5.97;;
75939;SDS011;75809;44.872;20.642;2024-03-23T10:51:36;12.00;;;5.60;;
75939;SDS011;75809;44.872;20.642;2024-03-23T10:54:04;13.68;;;5.47;;
75939;SDS011;75809;44.872;20.642;2024-03-23T10:56:32;11.65;;;5.45;;
75939;SDS011;75809;44.872;20.642;2024-03-23T10:59:01;15.35;;;5.80;;
75939;SDS011;75809;44.872;20.642;2024-03-23T11:01:30;12.98;;;5.32;;
75939;SDS011;75809;44.872;20.642;2024-03-23T11:03:56;11.93;;;5.22;;
75939;SDS011;75809;44.872;20.642;2024-03-23T11:06:34;13.93;;;6.85;;
75939;SDS011;75809;44.872;20.642;2024-03-23T11:09:02;14.77;;;7.40;;
75939;SDS011;75809;44.872;20.642;2024-03-23T11:11:28;11.68;;;5.40;;
75939;SDS011;75809;44.872;20.642;2024-03-23T11:13:56;12.68;;;5.32;;
75939;SDS011;75809;44.872;20.642;2024-03-23T11:16:26;13.88;;;5.07;;
75939;SDS011;75809;44.872;20.642;2024-03-23T11:22:13;12.00;;;5.70;;
75939;SDS011;75809;44.872;20.642;2024-03-23T11:24:38;13.25;;;5.38;;
75939;SDS011;75809;44.872;20.642;2024-03-23T11:27:15;10.65;;;4.32;;
75939;SDS011;75809;44.872;20.642;2024-03-23T11:29:41;11.70;;;4.60;;
75939;SDS011;75809;44.872;20.642;2024-03-23T11:32:07;12.30;;;4.68;;
75939;SDS011;75809;44.872;20.642;2024-03-23T11:34:35;10.40;;;4.80;;
75939;SDS011;75809;44.872;20.642;2024-03-23T11:37:04;12.02;;;4.40;;
75939;SDS011;75809;44.872;20.642;2024-03-23T11:39:30;8.55;;;3.72;;
75939;SDS011;75809;44.872;20.642;2024-03-23T11:41:56;11.02;;;3.15;;
75939;SDS011;75809;44.872;20.642;2024-03-23T11:44:25;13.07;;;3.47;;
75939;SDS011;75809;44.872;20.642;2024-03-23T11:46:51;12.68;;;3.75;;
75939;SDS011;75809;44.872;20.642;2024-03-23T11:51:53;8.55;;;3.45;;
75939;SDS011;75809;44.872;20.642;2024-03-23T11:57:01;8.43;;;3.00;;
75939;SDS011;75809;44.872;20.642;2024-03-23T11:59:36;10.45;;;3.35;;
75939;SDS011;75809;44.872;20.642;2024-03-23T12:02:10;10.63;;;3.40;;
75939;SDS011;75809;44.872;20.642;2024-03-23T12:04:38;7.22;;;2.67;;
75939;SDS011;75809;44.872;20.642;2024-03-23T12:09:44;8.95;;;3.28;;
75939;SDS011;75809;44.872;20.642;2024-03-23T12:14:45;7.07;;;2.70;;
75939;SDS011;75809;44.872;20.642;2024-03-23T12:17:26;5.82;;;2.80;;
75939;SDS011;75809;44.872;20.642;2024-03-23T12:19:52;8.13;;;2.70;;
75939;SDS011;75809;44.872;20.642;2024-03-23T12:22:21;11.63;;;3.40;;
75939;SDS011;75809;44.872;20.642;2024-03-23T12:24:47;10.07;;;3.30;;
75939;SDS011;75809;44.872;20.642;2024-03-23T12:27:12;9.20;;;3.00;;
75939;SDS011;75809;44.872;20.642;2024-03-23T12:29:38;8.98;;;3.55;;
75939;SDS011;75809;44.872;20.642;2024-03-23T12:32:04;10.25;;;3.30;;
75939;SDS011;75809;44.872;20.642;2024-03-23T12:34:30;8.27;;;3.30;;
75939;SDS011;75809;44.872;20.642;2024-03-23T12:36:56;6.95;;;3.45;;
75939;SDS011;75809;44.872;20.642;2024-03-23T12:39:21;9.35;;;2.88;;
75939;SDS011;75809;44.872;20.642;2024-03-23T12:41:47;7.75;;;3.05;;
75939;SDS011;75809;44.872;20.642;2024-03-23T12:44:13;7.38;;;2.88;;
75939;SDS011;75809;44.872;20.642;2024-03-23T12:46:40;7.00;;;2.92;;
75939;SDS011;75809;44.872;20.642;2024-03-23T12:49:09;6.57;;;3.05;;
75939;SDS011;75809;44.872;20.642;2024-03-23T12:51:34;8.85;;;3.13;;
75939;SDS011;75809;44.872;20.642;2024-03-23T12:54:00;8.48;;;3.22;;
75939;SDS011;75809;44.872;20.642;2024-03-23T12:56:25;11.20;;;3.90;;
75939;SDS011;75809;44.872;20.642;2024-03-23T12:58:53;7.07;;;3.28;;
75939;SDS011;75809;44.872;20.642;2024-03-23T13:01:20;8.57;;;3.30;;
75939;SDS011;75809;44.872;20.642;2024-03-23T13:03:46;5.80;;;2.53;;
75939;SDS011;75809;44.872;20.642;2024-03-23T13:06:12;7.90;;;3.60;;
75939;SDS011;75809;44.872;20.642;2024-03-23T13:08:38;6.47;;;3.45;;
75939;SDS011;75809;44.872;20.642;2024-03-23T13:11:05;7.25;;;3.17;;
75939;SDS011;75809;44.872;20.642;2024-03-23T13:13:30;9.48;;;3.88;;
75939;SDS011;75809;44.872;20.642;2024-03-23T13:15:57;8.13;;;3.70;;
75939;SDS011;75809;44.872;20.642;2024-03-23T13:18:22;8.00;;;3.53;;
75939;SDS011;75809;44.872;20.642;2024-03-23T13:20:47;9.18;;;4.43;;
75939;SDS011;75809;44.872;20.642;2024-03-23T13:23:13;7.63;;;3.63;;
75939;SDS011;75809;44.872;20.642;2024-03-23T13:25:38;6.45;;;3.35;;
75939;SDS011;75809;44.872;20.642;2024-03-23T13:28:04;7.25;;;3.30;;
75939;SDS011;75809;44.872;20.642;2024-03-23T13:30:30;9.90;;;3.20;;
75939;SDS011;75809;44.872;20.642;2024-03-23T13:32:55;9.63;;;4.70;;
75939;SDS011;75809;44.872;20.642;2024-03-23T13:35:21;14.63;;;3.63;;
75939;SDS011;75809;44.872;20.642;2024-03-23T13:37:47;6.75;;;2.95;;
75939;SDS011;75809;44.872;20.642;2024-03-23T13:40:13;7.68;;;3.47;;
75939;SDS011;75809;44.872;20.642;2024-03-23T13:42:39;10.52;;;3.47;;
75939;SDS011;75809;44.872;20.642;2024-03-23T13:45:04;8.38;;;3.63;;
75939;SDS011;75809;44.872;20.642;2024-03-23T13:47:31;9.98;;;3.60;;
75939;SDS011;75809;44.872;20.642;2024-03-23T13:49:57;9.02;;;3.63;;
75939;SDS011;75809;44.872;20.642;2024-03-23T13:52:23;8.48;;;3.47;;
75939;SDS011;75809;44.872;20.642;2024-03-23T13:54:50;10.00;;;3.60;;
75939;SDS011;75809;44.872;20.642;2024-03-23T13:57:17;7.90;;;3.28;;
75939;SDS011;75809;44.872;20.642;2024-03-23T13:59:45;8.80;;;3.72;;
75939;SDS011;75809;44.872;20.642;2024-03-23T14:02:11;7.78;;;3.40;;
75939;SDS011;75809;44.872;20.642;2024-03-23T14:04:39;11.27;;;4.90;;
75939;SDS011;75809;44.872;20.642;2024-03-23T14:07:05;8.65;;;4.07;;
75939;SDS011;75809;44.872;20.642;2024-03-23T14:09:30;13.13;;;4.03;;
75939;SDS011;75809;44.872;20.642;2024-03-23T14:11:57;10.02;;;3.55;;
75939;SDS011;75809;44.872;20.642;2024-03-23T14:14:25;8.20;;;3.45;;
75939;SDS011;75809;44.872;20.642;2024-03-23T14:16:50;7.15;;;3.30;;
75939;SDS011;75809;44.872;20.642;2024-03-23T14:19:16;12.65;;;3.85;;
75939;SDS011;75809;44.872;20.642;2024-03-23T14:21:41;10.60;;;3.78;;
75939;SDS011;75809;44.872;20.642;2024-03-23T14:24:07;12.43;;;4.03;;
75939;SDS011;75809;44.872;20.642;2024-03-23T14:26:34;7.78;;;3.65;;
75939;SDS011;75809;44.872;20.642;2024-03-23T14:29:00;12.07;;;3.50;;
75939;SDS011;75809;44.872;20.642;2024-03-23T14:31:26;10.07;;;3.65;;
75939;SDS011;75809;44.872;20.642;2024-03-23T14:33:51;9.27;;;3.58;;
75939;SDS011;75809;44.872;20.642;2024-03-23T14:36:17;7.82;;;3.45;;
75939;SDS011;75809;44.872;20.642;2024-03-23T14:38:48;8.90;;;3.80;;
75939;SDS011;75809;44.872;20.642;2024-03-23T14:41:14;8.93;;;3.53;;
75939;SDS011;75809;44.872;20.642;2024-03-23T14:43:40;9.02;;;3.42;;
75939;SDS011;75809;44.872;20.642;2024-03-23T14:48:31;9.70;;;3.97;;
75939;SDS011;75809;44.872;20.642;2024-03-23T14:50:57;9.43;;;4.45;;
75939;SDS011;75809;44.872;20.642;2024-03-23T14:53:24;10.00;;;5.05;;
75939;SDS011;75809;44.872;20.642;2024-03-23T14:55:50;9.10;;;4.70;;
75939;SDS011;75809;44.872;20.642;2024-03-23T14:58:15;12.00;;;4.75;;
75939;SDS011;75809;44.872;20.642;2024-03-23T15:00:41;7.57;;;3.58;;
75939;SDS011;75809;44.872;20.642;2024-03-23T15:03:06;11.80;;;3.92;;
75939;SDS011;75809;44.872;20.642;2024-03-23T15:05:32;8.57;;;4.15;;
75939;SDS011;75809;44.872;20.642;2024-03-23T15:07:57;7.82;;;3.78;;
75939;SDS011;75809;44.872;20.642;2024-03-23T15:10:23;8.38;;;3.65;;
75939;SDS011;75809;44.872;20.642;2024-03-23T15:12:48;7.97;;;3.33;;
75939;SDS011;75809;44.872;20.642;2024-03-23T15:15:14;7.35;;;3.85;;
75939;SDS011;75809;44.872;20.642;2024-03-23T15:17:40;7.38;;;3.53;;
75939;SDS011;75809;44.872;20.642;2024-03-23T15:20:09;6.78;;;3.60;;
75939;SDS011;75809;44.872;20.642;2024-03-23T15:22:36;9.68;;;3.72;;
75939;SDS011;75809;44.872;20.642;2024-03-23T15:25:02;6.95;;;3.60;;
75939;SDS011;75809;44.872;20.642;2024-03-23T15:27:28;8.75;;;3.70;;
75939;SDS011;75809;44.872;20.642;2024-03-23T15:29:55;12.20;;;3.83;;